Flight Track Log - Related Links

Times and Time Zones

All times are in EDT time to prevent confusion due to time zone crossing. See the SKW5646 flight status page for this flight to view local times or setup timezone preferences in your user account.

Time Position Orientation Groundspeed Altitude Reporting Facility
EDT Latitude Longitude Course Direction KTS MPH feet Rate Location/Type
Wed 03:37:06 PM 34.4269 -119.8722 275° West 134 154 1,000  Level Los Angeles Center
Wed 03:38:08 PM 34.4258 -119.9278 269° West 177 204 2,300 1,210 Climbing Los Angeles Center
Wed 03:39:10 PM 34.4194 -119.9997 264° West 197 227 3,500 1,306 Climbing Los Angeles Center
Wed 03:40:12 PM 34.4158 -120.0722 267° West 213 245 5,000 1,452 Climbing Los Angeles Center
Wed 03:41:00 PM 34.5698 -120.1365 321° Northwest  Level FlightAware Approximate
Wed 03:41:14 PM 34.4144 -120.1464 269° West 217 250 6,500  Level Los Angeles Center
Wed 03:42:00 PM 34.6302 -120.1893 328° Northwest  Level FlightAware Approximate
Wed 03:42:16 PM 34.4139 -120.2347 270° West 218 251 8,500  Level Los Angeles Center
Wed 03:43:19 PM 34.4456 -120.2858 307° West 216 249 10,000 1,270 Climbing Los Angeles Center
Wed 03:44:33 PM 34.4947 -120.3200 330° Northwest 204 235 11,400 1,235 Climbing Los Angeles Center
Wed 03:45:35 PM 34.5497 -120.3619 328° Northwest 195 224 12,800 774 Climbing Los Angeles Center
Wed 03:46:37 PM 34.6022 -120.4006 329° Northwest 198 228 13,000 774 Climbing Los Angeles Center
Wed 03:47:39 PM 34.6458 -120.4353 327° Northwest 209 241 14,400 1,152 Climbing Los Angeles Center
Wed 03:48:42 PM 34.7078 -120.4850 327° Northwest 221 254 15,400 864 Climbing Los Angeles Center
Wed 03:49:44 PM 34.7614 -120.5256 328° Northwest 225 259 16,200 823 Climbing Los Angeles Center
Wed 03:50:46 PM 34.8150 -120.5672 327° Northwest 227 261 17,100 871 Climbing Los Angeles Center
Wed 03:51:48 PM 34.8722 -120.6106 328° Northwest 229 264 18,000 871 Climbing Los Angeles Center
Wed 03:52:50 PM 34.9247 -120.6519 327° Northwest 226 260 18,900 823 Climbing Los Angeles Center
Wed 03:53:52 PM 34.9761 -120.6919 327° Northwest 221 254 19,700 629 Climbing Los Angeles Center
Wed 03:54:54 PM 35.0300 -120.7336 328° Northwest 227 261 20,200 532 Climbing Los Angeles Center
Wed 03:55:56 PM 35.0964 -120.7853 328° Northwest 235 270 20,800 485 Climbing Los Angeles Center
Wed 03:57:10 PM 35.1547 -120.8294 328° Northwest 244 281 21,300 482 Climbing Los Angeles Center
Wed 03:58:13 PM 35.2231 -120.8817 328° Northwest 240 276 21,900 336 Climbing Los Angeles Center
Wed 03:59:15 PM 35.2803 -120.9300 325° Northwest 248 285 22,000 48 Climbing Los Angeles Center
Wed 04:00:17 PM 35.3425 -120.9797 327° Northwest 260 299 22,000  Level Los Angeles Center
Wed 04:01:22 PM 35.4175 -121.0375 328° Northwest 269 310 22,000  Level Oakland Center
Wed 04:02:23 PM 35.4797 -121.0875 327° Northwest 269 310 22,000  Level Oakland Center
Wed 04:03:25 PM 35.5414 -121.1381 326° Northwest 267 307 22,000  Level Oakland Center
Wed 04:04:26 PM 35.6028 -121.1861 328° Northwest 265 305 22,000  Level Oakland Center
Wed 04:05:27 PM 35.6653 -121.2350 328° Northwest 266 306 22,000  Level Oakland Center
Wed 04:06:29 PM 35.7281 -121.2833 328° Northwest 273 314 22,000  Level Oakland Center
Wed 04:07:30 PM 35.7900 -121.3331 327° Northwest 273 314 22,000  Level Oakland Center
Wed 04:08:31 PM 35.8508 -121.3839 326° Northwest 271 312 22,000  Level Oakland Center
Wed 04:09:33 PM 35.9244 -121.4422 327° Northwest 264 304 22,000  Level Oakland Center
Wed 04:10:34 PM 35.9850 -121.4919 326° Northwest 263 303 22,000  Level Oakland Center
Wed 04:11:35 PM 36.0492 -121.5381 330° Northwest 269 310 22,000 -390 Level Oakland Center
Wed 04:12:37 PM 36.1117 -121.5881 327° Northwest 275 316 21,200 -780 Descending Oakland Center
Wed 04:13:38 PM 36.1792 -121.6422 327° Northwest 292 336 20,400 -639 Descending Oakland Center
Wed 04:14:39 PM 36.2522 -121.6831 336° Northwest 291 335 19,900 -634 Descending Oakland Center
Wed 04:15:41 PM 36.3311 -121.7172 341° North 299 344 19,100 -787 Descending Oakland Center
Wed 04:16:41 PM 36.4167 -121.7667 335° Northwest 293 337 18,300 -842 Descending Northern Cal TRACON
Wed 04:17:35 PM 36.4833 -121.8000 338° Northwest 299 344 17,500 -1,000 Descending Northern Cal TRACON
Wed 04:18:35 PM 36.5667 -121.8500 334° Northwest 304 350 16,400 -1,041 Descending Northern Cal TRACON
Wed 04:19:36 PM 36.6333 -121.8833 338° Northwest 297 342 15,400 -1,000 Descending Northern Cal TRACON
Wed 04:20:35 PM 36.7167 -121.9167 342° North 293 337 14,400 -1,000 Descending Northern Cal TRACON
Wed 04:21:36 PM 36.7833 -121.9667 329° Northwest 288 331 13,400 -992 Descending Northern Cal TRACON
Wed 04:22:36 PM 36.8667 -122.0000 342° North 286 329 12,400 -1,000 Descending Northern Cal TRACON
Wed 04:23:30 PM 36.9167 -122.0333 332° Northwest 288 331 11,500 -960 Descending Northern Cal TRACON
Wed 04:23:51 PM 36.9456 -122.0444 343° North 287 330 11,200 -805 Descending Oakland Center
Wed 04:24:52 PM 37.0161 -122.0819 337° Northwest 277 319 10,400 -878 Descending Oakland Center
Wed 04:25:54 PM 37.0847 -122.1186 337° Northwest 269 310 9,400 -976 Descending Oakland Center
Wed 04:26:55 PM 37.1539 -122.1542 338° Northwest 270 311 8,400 -1,000 Descending Oakland Center
Wed 04:28:36 PM 37.2667 -122.2167 336° Northwest 263 303 6,700 -976 Descending Northern Cal TRACON
Wed 04:28:58 PM 37.2883 -122.2231 347° North 260 299 6,400 -578 Descending Oakland Center
Wed 04:29:59 PM 37.3675 -122.2147 North 246 283 5,900 -683 Descending Oakland Center
Wed 04:31:01 PM 37.4344 -122.1917 15° North 249 287 5,000 -829 Descending Oakland Center
Wed 04:32:02 PM 37.4942 -122.1689 17° North 234 269 4,200 -934 Descending Oakland Center
Wed 04:33:03 PM 37.5344 -122.2022 327° Northwest 210 242 3,100 -1,024 Descending Oakland Center
Wed 04:34:05 PM 37.5656 -122.2564 306° West 198 228 2,100 -968 Descending Oakland Center

Login

Don't have an account? Register now (free) for customized features, flight alerts, and more!